createdAt,value
2023-05-11T04:06:25.837Z,101305.09
2023-05-11T04:12:51.779Z,101296.22
2023-05-11T04:18:54.011Z,101315.72
2023-05-11T04:24:56.218Z,101309.47
2023-05-11T04:30:58.985Z,101302.69
2023-05-11T04:37:07.472Z,101310.88
2023-05-11T04:43:13.358Z,101316.94
2023-05-11T04:49:16.117Z,101319.06
2023-05-11T04:55:20.171Z,101328.00
2023-05-11T05:01:22.953Z,101330.59
2023-05-11T05:07:25.877Z,101330.00
2023-05-11T05:13:28.178Z,101330.47
2023-05-11T05:19:30.999Z,101340.81
2023-05-11T05:25:34.580Z,101336.41
2023-05-11T05:31:38.860Z,101329.34
2023-05-11T05:37:42.568Z,101328.38
2023-05-11T05:43:45.643Z,101330.03
2023-05-11T05:49:49.987Z,101336.91
2023-05-11T05:55:52.964Z,101334.50
2023-05-11T06:01:55.609Z,101331.78
2023-05-11T06:08:09.936Z,101338.41
2023-05-11T06:14:13.934Z,101331.78
2023-05-11T06:20:18.857Z,101328.31
2023-05-11T06:26:25.394Z,101338.16
2023-05-11T06:32:33.237Z,101349.97
2023-05-11T06:38:41.125Z,101342.19
2023-05-11T06:44:45.343Z,101344.41
2023-05-11T06:50:47.966Z,101325.03
2023-05-11T06:56:52.101Z,101335.63
2023-05-11T07:02:55.570Z,101349.41
2023-05-11T07:08:58.707Z,101334.34
2023-05-11T07:15:01.782Z,101336.19
2023-05-11T07:21:04.204Z,101347.34
2023-05-11T07:27:07.044Z,101340.13
2023-05-11T07:33:11.417Z,101349.38
2023-05-11T07:39:17.774Z,101334.47
2023-05-11T07:45:20.160Z,101328.88
2023-05-11T07:51:24.084Z,101331.13
2023-05-11T07:57:27.488Z,101320.50
2023-05-11T08:03:30.741Z,101314.31
2023-05-11T08:09:35.946Z,101326.09
2023-05-11T08:15:38.383Z,101327.69
